ADDS METAR Data INFO
IDs: Format: Raw Decoded Include TAF

Data at: 2056 UTC 19 Jul 2018

K0A9 192035Z AUTO 08008G13KT 060V120 10SM CLR 27/18 A3005 RMK AO2
K0A9 192015Z AUTO 10008G15KT 070V130 10SM CLR 27/18 A3006 RMK AO2
K0A9 191955Z AUTO 10009KT 070V130 10SM CLR 27/17 A3006 RMK AO2
K0A9 191935Z AUTO 08008G15KT 10SM CLR 27/17 A3007 RMK AO2
K0A9 191915Z AUTO 09011KT 060V120 10SM CLR 27/17 A3007 RMK AO2
K0A9 191855Z AUTO 10008G13KT 10SM FEW050 27/17 A3007 RMK AO2
K0A9 191835Z AUTO 10009G15KT 10SM SCT050 27/16 A3007 RMK AO2
K0A9 191815Z AUTO 11009G14KT 10SM FEW048 FEW060 SCT065 27/17 A3007 RMK AO2
K0A9 191755Z AUTO 09008G15KT 10SM FEW049 SCT060 BKN065 27/17 A3007 RMK AO2
K0A9 191735Z AUTO 09013G20KT 10SM FEW048 28/17 A3007 RMK AO2
K0A9 191715Z AUTO 09011KT 10SM FEW046 28/17 A3007 RMK AO2
K0A9 191655Z AUTO 11012KT 080V150 10SM FEW046 27/17 A3008 RMK AO2
K0A9 191635Z AUTO 09010G17KT 10SM CLR 27/17 A3008 RMK AO2
K0A9 191615Z AUTO 09010G16KT 10SM CLR 27/17 A3008 RMK AO2
K0A9 191555Z AUTO 09010KT 10SM FEW065 27/17 A3008 RMK AO2
K0A9 191535Z AUTO 08010G18KT 10SM CLR 27/17 A3008 RMK AO2
K0A9 191515Z AUTO 10009G17KT 070V140 10SM CLR 27/17 A3008 RMK AO2
K0A9 191455Z AUTO 08006G12KT 10SM CLR 26/17 A3008 RMK AO2
K0A9 191435Z AUTO 08009G14KT 050V110 10SM CLR 26/17 A3008 RMK AO2
K0A9 191415Z AUTO 10007KT 10SM CLR 26/17 A3008 RMK AO2
K0A9 191355Z AUTO 09007G15KT 10SM CLR 25/17 A3008 RMK AO2
K0A9 191335Z AUTO 09010KT 060V120 10SM CLR 25/17 A3009 RMK AO2
K0A9 191315Z AUTO 09009KT 10SM CLR 24/16 A3008 RMK AO2
K0A9 191255Z AUTO 08008G14KT 10SM SCT070 24/17 A3008 RMK AO2
K0A9 191235Z AUTO VRB04G11KT 10SM SCT070 23/17 A3007 RMK AO2
K0A9 191215Z AUTO VRB05KT 10SM FEW065 FEW075 23/17 A3007 RMK AO2
K0A9 191155Z AUTO 09003KT 10SM FEW065 21/17 A3007 RMK AO2
K0A9 191135Z AUTO 09004KT 10SM FEW060 20/17 A3006 RMK AO2
K0A9 191115Z AUTO 00000KT 10SM SCT065 SCT075 18/17 A3006 RMK AO2
K0A9 191055Z AUTO 00000KT 10SM BKN065 BKN075 17/16 A3006 RMK AO2
K0A9 191035Z AUTO 00000KT 10SM FEW065 16/15 A3005 RMK AO2
K0A9 191015Z AUTO 00000KT 10SM CLR 16/15 A3005 RMK AO2
K0A9 190955Z AUTO 00000KT 10SM BKN060 BKN070 17/15 A3004 RMK AO2
K0A9 190935Z AUTO 00000KT 10SM BKN060 17/15 A3004 RMK AO2
K0A9 190915Z AUTO 00000KT 10SM FEW065 17/15 A3004 RMK AO2
K0A9 190855Z AUTO 00000KT 10SM SCT070 17/15 A3004 RMK AO2
K0A9 190835Z AUTO 00000KT 10SM FEW065 17/15 A3004 RMK AO2
K0A9 190815Z AUTO 00000KT 10SM SCT070 19/15 A3003 RMK AO2
K0A9 190755Z AUTO 07004KT 10SM FEW060 SCT070 18/15 A3004 RMK AO2
K0A9 190735Z AUTO 06004KT 10SM SCT060 SCT070 18/15 A3004 RMK AO2
K0A9 190715Z AUTO 07004KT 10SM FEW060 BKN070 18/15 A3005 RMK AO2
K0A9 190655Z AUTO VRB04KT 10SM BKN065 18/15 A3005 RMK AO2
K0A9 190635Z AUTO 07005KT 10SM BKN060 BKN075 18/15 A3006 RMK AO2
K0A9 190615Z AUTO VRB03KT 10SM BKN065 OVC075 18/15 A3007 RMK AO2
K0A9 190555Z AUTO 00000KT 10SM BKN065 OVC075 18/16 A3006 RMK AO2
K0A9 190535Z AUTO 00000KT 10SM OVC060 17/16 A3007 RMK AO2
K0A9 190515Z AUTO 00000KT 10SM 17/16 A3007 RMK AO2
K0A9 190455Z AUTO 00000KT 10SM BKN070 18/16 A3006 RMK AO2
K0A9 190435Z AUTO 00000KT 10SM BKN070 17/16 A3006 RMK AO2
K0A9 190415Z AUTO 00000KT 10SM FEW070 18/16 A3006 RMK AO2
K0A9 190355Z AUTO 00000KT 10SM CLR 18/16 A3006 RMK AO2
K0A9 190335Z AUTO 00000KT 10SM CLR 18/16 A3006 RMK AO2
K0A9 190315Z AUTO 00000KT 10SM CLR 20/16 A3005 RMK AO2
K0A9 190255Z AUTO 00000KT 10SM CLR 20/16 A3006 RMK AO2
K0A9 190235Z AUTO 00000KT 10SM CLR 20/17 A3005 RMK AO2
K0A9 190215Z AUTO 00000KT 10SM CLR 20/17 A3005 RMK AO2
K0A9 190155Z AUTO VRB04KT 10SM FEW055 FEW065 21/17 A3004 RMK AO2
K0A9 190135Z AUTO 08004KT 10SM SCT055 22/17 A3003 RMK AO2
K0A9 190115Z AUTO 00000KT 10SM SCT060 22/17 A3003 RMK AO2
K0A9 190055Z AUTO 00000KT 10SM FEW065 23/17 A3003 RMK AO2
K0A9 190035Z AUTO 00000KT 10SM FEW065 23/18 A3003 RMK AO2
K0A9 190015Z AUTO 00000KT 10SM SCT060 24/18 A3002 RMK AO2
K0A9 182355Z AUTO 00000KT 10SM SCT060 26/18 A3001 RMK AO2
K0A9 182335Z AUTO 00000KT 10SM CLR 27/18 A3001 RMK AO2
K0A9 182315Z AUTO 00000KT 10SM FEW070 27/16 A3000 RMK AO2
K0A9 182255Z AUTO 35004KT 10SM FEW070 28/15 A3000 RMK AO2
K0A9 182235Z AUTO 00000KT 10SM CLR 27/16 A3000 RMK AO2
K0A9 182215Z AUTO VRB04KT 10SM CLR 29/15 A3000 RMK AO2
K0A9 182155Z AUTO 01004KT 10SM CLR 28/15 A3001 RMK AO2
K0A9 182135Z AUTO 00000KT 10SM CLR 29/15 A3000 RMK AO2
K0A9 182115Z AUTO VRB05KT 10SM CLR 29/15 A3000 RMK AO2
K0A9 182055Z AUTO 00000KT 10SM CLR 29/15 A3001 RMK AO2
K0A9 182035Z AUTO VRB04KT 10SM FEW060 FEW070 28/15 A3001 RMK AO2
K0A9 182015Z AUTO 05006KT 10SM SCT060 29/15 A3002 RMK AO2
K0A9 181955Z AUTO 35003KT 10SM CLR 29/15 A3003 RMK AO2
K0A9 181935Z AUTO VRB06KT 10SM FEW065 29/15 A3004 RMK AO2
K0A9 181915Z AUTO VRB05KT 10SM SCT060 28/16 A3004 RMK AO2
K0A9 181855Z AUTO 30007KT 10SM FEW060 29/15 A3004 RMK AO2
K0A9 181835Z AUTO VRB05KT 10SM FEW060 29/15 A3005 RMK AO2
K0A9 181815Z AUTO 00000KT 10SM SCT055 BKN065 28/14 A3005 RMK AO2
K0A9 181755Z AUTO 00000KT 10SM BKN055 28/14 A3005 RMK AO2
K0A9 181735Z AUTO 00000KT 10SM BKN055 BKN065 27/14 A3005 RMK AO2
K0A9 181715Z AUTO 00000KT 10SM FEW060 28/14 A3006 RMK AO2
K0A9 181655Z AUTO 00000KT 10SM CLR 27/14 A3006 RMK AO2
K0A9 181635Z AUTO 00000KT 10SM CLR 27/15 A3006 RMK AO2
K0A9 181615Z AUTO VRB04KT 10SM FEW047 FEW055 27/15 A3007 RMK AO2
K0A9 181555Z AUTO 00000KT 10SM BKN048 BKN055 26/15 A3007 RMK AO2
K0A9 181535Z AUTO 00000KT 10SM FEW035 SCT043 BKN048 25/18 A3008 RMK AO2
K0A9 181515Z AUTO 00000KT 10SM SCT036 BKN043 26/18 A3008 RMK AO2
K0A9 181455Z AUTO 00000KT 10SM FEW039 25/18 A3008 RMK AO2
K0A9 181435Z AUTO VRB05KT 10SM FEW019 25/20 A3008 RMK AO2
K0A9 181415Z AUTO VRB04KT 10SM SCT018 25/20 A3008 RMK AO2
K0A9 181355Z AUTO 30005KT 10SM BKN017 24/20 A3008 RMK AO2
K0A9 181335Z AUTO 00000KT 10SM CLR 24/20 A3008 RMK AO2
K0A9 181315Z AUTO 00000KT 10SM CLR 23/19 A3008 RMK AO2
K0A9 181255Z AUTO 00000KT CLR 22/20 A3008 RMK AO2
K0A9 181235Z AUTO 00000KT 10SM FEW012 21/19 A3007 RMK AO2
K0A9 181215Z AUTO 00000KT 10SM SCT013 21/19 A3007 RMK AO2
K0A9 181155Z AUTO 00000KT 9SM BKN015 21/20 A3006 RMK AO2
K0A9 181135Z AUTO 00000KT 8SM OVC015 21/20 A3006 RMK AO2
K0A9 181115Z AUTO 00000KT 10SM OVC010 21/19 A3006 RMK AO2
K0A9 181055Z AUTO 00000KT 9SM OVC008 20/19 A3005 RMK AO2
K0A9 181035Z AUTO 00000KT 10SM OVC006 20/19 A3004 RMK AO2
K0A9 181015Z AUTO 00000KT 10SM 20/20 A3003 RMK AO2
K0A9 180955Z AUTO 00000KT 9SM FEW004 BKN010 BKN040 20/20 A3003 RMK AO2
K0A9 180935Z AUTO 00000KT 9SM SCT005 OVC010 21/20 A3002 RMK AO2
K0A9 180915Z AUTO 00000KT 10SM 21/20 A3002 RMK AO2